Moses Lake, Washington
Current Conditions -  °F | °C
As of 10:52 PM on Saturday 25 Oct 2014 (Local Time) from KMWH Reporting Station
Scattered Clouds Scattered Clouds  
Wind Chill: 57°   Ceiling: Unl
Heat Index: 57°   Visibility: 10mi
Dew Point: 43°   Wind: 22mph
Humidity: 59%   Direction: 210°SSW
Pressure: 29.57"   Gusts: 31mph
Location:  47.13°N, 119.27°W
Report Text: KMWH 260552Z AUTO 21019G27KT 10SM FEW070 SCT110 14/06 A2957 RMK AO2 PK WND 21035/0510 SLP013 T01390061 10150 20117 53035 TSNO
Loading
Personal Weather Stations






























Interactive Weather Map
Tropical Storm Tracking
New forecast layout! Learn more

10-Day Weather Forecast

Advertisements
Track Severe Weather on mobile